LFLY/LYN METAR and TAF weather

Enter ICAO airport designator
Station Type Date Time Source
LFLY METAR 2019/08/26 07:30 UTC NOAA

LFLY 260730Z AUTO 17003KT 100V230 CAVOK 22/14 Q1019 NOSIG


Station Type Date Time Source
LFLY Decoded METAR 2019/08/26 07:30 UTC NOAA

Station name not available
Aug 26, 2019 - 03:30 AM EDT / 2019.08.26 0730 UTC
Wind: from the S (170 degrees) at 3 MPH (3 KT) (direction variable):0
Visibility: greater than 7 mile(s):0
Temperature: 71 F (22 C)
Dew Point: 57 F (14 C)
Relative Humidity: 60%
Pressure (altimeter): 30.09 in. Hg (1019 hPa)
ob: LFLY 260730Z AUTO 17003KT 100V230 CAVOK 22/14 Q1019 NOSIG
cycle: 7

Station Type Date Time Source
LFLY TAF 2019/08/26 06:21 UTC NOAA

TAF LFLY 260500Z 2606/2706 17004KT CAVOK
TEMPO 2612/2620 08005KT

Example: see airport list